• Join FlightAware (Why Join?)
  • Login
  • US Flag GB Flag 
21:12 EDT


 

Airport Tracker/Info


-or-


 

Live Flight TrackerFlight Track Log ✈ UAL906 ✈ 27-Sep-2013 ✈ EDDF / FRA - KORD

Flight Track Log - Related Links

Times and Time Zones

All times are in EDT time to prevent confusion due to time zone crossing. See the UAL906 flight status page for this flight to view local times or setup timezone preferences in your user account.

Time Position Orientation Groundspeed Altitude Reporting Facility
EDT Latitude Longitude Course Direction KTS MPH feet Rate Location/Type
07:17 50.0350 8.5450 90° East 105 121  Level FlightAware
07:17 50.0380 8.5570 69° East 150 173 900 Level FlightAware
07:18 50.0430 8.5790 71° East 180 207 500 1,920 Climbing FlightAware
07:18 50.0500 8.6100 71° East 185 213 1,400 2,160 Climbing FlightAware
07:19 50.0560 8.6360 70° East 187 215 2,200 2,100 Climbing FlightAware
07:19 50.0620 8.6640 72° East 190 219 2,900 1,800 Climbing FlightAware
07:19 50.0680 8.6910 71° East 194 223 3,500 1,500 Climbing FlightAware
07:19 50.0730 8.7050 61° Northeast 202 232 3,700 600 Climbing FlightAware
07:20 50.0770 8.7140 55° Northeast 214 246 3,700 600 Level FlightAware
07:20 50.0880 8.7250 33° Northeast 231 266 3,900 1,440 Climbing FlightAware
07:20 50.1130 8.7400 21° North 242 278 4,600 1,320 Climbing FlightAware
07:21 50.1340 8.7540 23° Northeast 263 303 4,900 1,680 Climbing FlightAware
07:21 50.1560 8.7680 22° Northeast 266 306 5,700 2,280 Climbing FlightAware
07:21 50.1840 8.7800 15° North 269 310 6,500 2,040 Climbing FlightAware
07:22 50.2120 8.7690 346° North 267 307 7,400 1,980 Climbing FlightAware
07:22 50.2200 8.7600 324° Northwest 268 308 7,600 2,640 Climbing FlightAware
07:22 50.2370 8.7360 318° Northwest 264 304 8,500 2,400 Climbing FlightAware
07:22 50.2600 8.7050 319° Northwest 267 307 9,400 2,220 Climbing FlightAware
07:23 50.2700 8.6900 316° Northwest 268 308 9,800 1,560 Climbing FlightAware
07:23 50.2970 8.6360 308° West 289 333 10,600 1,020 Climbing FlightAware
07:24 50.3290 8.5640 305° West 322 371 11,100 1,020 Climbing FlightAware
07:24 50.3560 8.5050 306° West 343 395 11,800 1,740 Climbing FlightAware
07:25 50.3900 8.4290 305° West 348 400 13,000 1,920 Climbing FlightAware
07:26 50.4210 8.3610 306° West 353 406 14,100 1,920 Climbing FlightAware
07:26 50.4550 8.2840 305° West 355 409 15,300 1,860 Climbing FlightAware
07:27 50.4940 8.1970 305° West 363 418 16,500 1,680 Climbing FlightAware
07:27 50.5260 8.1240 305° West 367 422 17,400 1,620 Climbing FlightAware
07:28 50.5690 8.0270 305° West 375 432 18,600 1,500 Climbing FlightAware
07:29 50.6030 7.9490 305° West 380 437 19,400 1,380 Climbing FlightAware
07:29 50.6330 7.8800 304° West 384 442 20,100 1,440 Climbing FlightAware
07:30 50.6680 7.7990 304° West 388 447 21,000 1,320 Climbing FlightAware
07:30 50.7090 7.7060 305° West 394 453 21,800 1,260 Climbing FlightAware
07:31 50.7370 7.6420 305° West 393 452 22,500 1,380 Climbing FlightAware
07:32 50.7750 7.5560 305° West 399 459 23,300 1,260 Climbing FlightAware
07:32 50.8100 7.4740 304° West 402 463 24,000 1,320 Climbing FlightAware
07:33 50.8530 7.3740 304° West 406 467 24,900 1,320 Climbing FlightAware
07:33 50.8920 7.2830 304° West 408 470 25,700 1,260 Climbing FlightAware
07:34 50.9310 7.1930 305° West 410 472 26,500 1,260 Climbing FlightAware
07:35 50.9670 7.1150 306° West 412 474 27,200 1,260 Climbing FlightAware
07:35 51.0130 7.0400 314° West 413 475 27,900 1,200 Climbing FlightAware
07:36 51.0530 6.9560 307° West 412 474 28,600 1,080 Climbing FlightAware
07:36 51.0900 6.8550 300° West 417 480 29,300 1,260 Climbing FlightAware
07:37 51.1190 6.7760 300° West 411 473 30,100 1,200 Climbing FlightAware
07:37 51.1530 6.6800 299° West 413 475 30,700 720 Climbing FlightAware
07:38 51.1870 6.5850 300° West 411 473 31,000 240 Climbing FlightAware
07:39 51.2210 6.4890 300° West 411 473 31,000  Level FlightAware
07:39 51.2570 6.3980 302° West 411 473 31,000  Level FlightAware
07:40 51.2910 6.3270 307° West 412 474 31,000  Level FlightAware
07:40 51.3400 6.2360 311° West 412 474 31,000  Level FlightAware
07:41 51.3830 6.1560 311° West 412 474 31,000 300 Level FlightAware
07:41 51.4220 6.0840 311° West 405 466 31,400 660 Climbing FlightAware
07:42 51.4680 5.9970 310° West 402 463 31,800 480 Climbing FlightAware
07:43 51.5120 5.9140 310° West 404 465 32,000 120 Climbing FlightAware
07:43 51.5490 5.8450 311° West 406 467 32,000  Level FlightAware
07:44 51.6010 5.7450 310° West 407 468 32,000 180 Level FlightAware
07:45 51.6450 5.6620 311° West 409 471 32,300 600 Climbing FlightAware
07:45 51.6910 5.5740 310° West 408 470 32,800 840 Climbing FlightAware
07:46 51.7300 5.4990 310° West 408 470 33,300 900 Climbing FlightAware
07:46 51.7680 5.4270 310° West 406 467 33,800 780 Climbing FlightAware
07:46 51.7716 5.4084 310° West 482 555 33,800 300 Level FlightAware UK
07:47 51.8140 5.3370 310° West 406 467 34,000 120 Climbing FlightAware
07:47 51.8580 5.2540 311° West 406 467 34,000  Level FlightAware
07:48 51.9000 5.1710 309° West 406 467 34,000  Level FlightAware
07:49 51.9440 5.0870 310° West 406 467 34,000  Level FlightAware
07:49 51.9910 4.9940 309° West 406 467 34,000  Level FlightAware
07:50 52.0320 4.9140 310° West 406 467 34,000  Level FlightAware
07:51 52.0750 4.8300 310° West 407 468 34,000  Level FlightAware
07:51 52.1150 4.7510 310° West 407 468 34,000  Level FlightAware
07:52 52.1560 4.6690 309° West 407 468 34,000  Level FlightAware
07:52 52.2020 4.5780 310° West 408 470 34,000  Level FlightAware
07:53 52.2420 4.4990 310° West 409 471 34,000  Level FlightAware
07:53 52.2864 4.4119 310° West 482 555 34,000  Level FlightAware UK
07:53 52.2790 4.4240 310° West 410 472 34,000  Level FlightAware
07:54 52.3270 4.3290 310° West 410 472 34,000  Level FlightAware
07:55 52.3700 4.2420 309° West 410 472 34,000  Level FlightAware
07:55 52.4110 4.1590 309° West 410 472 34,000  Level FlightAware
07:56 52.4490 4.0830 309° West 411 473 34,000  Level FlightAware
07:56 52.4920 3.9950 309° West 410 472 34,000  Level FlightAware
07:57 52.5350 3.9070 309° West 410 472 34,000  Level FlightAware
07:58 52.5800 3.8150 309° West 410 472 34,000  Level FlightAware
07:58 52.6150 3.7430 309° West 410 472 34,000  Level FlightAware
07:59 52.6569 3.6581 309° West 482 555 34,000  Level FlightAware UK
07:59 52.6570 3.6560 309° West 411 473 34,000  Level FlightAware
07:59 52.6996 3.5701 309° West 482 555 34,000  Level FlightAware UK
07:59 52.7020 3.5640 309° West 411 473 34,000  Level FlightAware
08:00 52.7400 3.4850 308° West 412 474 34,000  Level FlightAware
08:00 52.7730 3.4170 309° West 412 474 34,000  Level FlightAware
08:01 52.8130 3.3320 308° West 412 474 34,000  Level FlightAware
08:01 52.8551 3.2460 308° West 482 555 34,000  Level FlightAware UK
08:02 52.8580 3.2390 308° West 412 474 34,000  Level FlightAware
08:02 52.9000 3.1430 306° West 411 473 34,000  Level FlightAware
08:03 52.9230 3.0630 296° West 411 473 34,000  Level FlightAware
08:03 52.9422 2.9633 296° West 480 552 34,000  Level FlightAware UK
08:03 52.9460 2.9450 296° West 412 474 34,000  Level FlightAware
08:04 52.9650 2.8400 287° West 413 475 34,000  Level FlightAware
08:04 52.9840 2.7340 287° West 414 476 34,000  Level FlightAware
08:05 53.0030 2.6290 287° West 414 476 34,000  Level FlightAware
08:06 53.0220 2.5210 286° West 413 475 34,000  Level FlightAware
08:06 53.0420 2.4130 287° West 414 476 34,000  Level FlightAware
08:07 53.0570 2.3250 286° West 415 478 34,000  Level FlightAware
08:07 53.0790 2.2020 287° West 416 479 34,000  Level FlightAware
08:07 53.0842 2.1706 285° West 417 480 34,000  Level FlightAware ADS-B (EGXW / WTN)
08:08 53.1021 2.0695 285° West 480 552 34,000  Level FlightAware UK
08:08 53.1052 2.0499 285° West 417 480 34,000  Level FlightAware ADS-B (EGXW / WTN)
08:09 53.1262 1.9285 286° West 418 481 34,000  Level FlightAware ADS-B (EGXW / WTN)
08:09 53.1438 1.8262 286° West 419 482 34,000  Level FlightAware ADS-B (EGXW / WTN)
08:10 53.1720 1.6623 286° West 480 552 34,000  Level FlightAware UK
08:10 53.1730 1.6520 286° West 420 483 34,000  Level FlightAware
08:11 53.1909 1.5498 286° West 480 552 34,000  Level FlightAware UK
08:11 53.1910 1.5460 286° West 420 483 34,000  Level FlightAware
08:11 53.1952 1.5231 287° West 421 484 34,000  Level FlightAware ADS-B (EGXW / WTN)
08:12 53.2115 1.4263 286° West 421 484 34,000  Level FlightAware ADS-B (EGXW / WTN)
08:12 53.2277 1.3294 286° West 423 487 34,000  Level FlightAware ADS-B (EGXW / WTN)
08:13 53.2482 1.2055 286° West 424 488 34,000  Level FlightAware ADS-B
08:13 53.2655 1.1005 285° West 424 488 34,000  Level FlightAware ADS-B
08:14 53.2825 0.9961 285° West 425 489 34,000  Level FlightAware ADS-B (EGXW / WTN)
08:14 53.2972 0.9068 285° West 426 490 34,000  Level FlightAware ADS-B (EGXW / WTN)
08:15 53.3189 0.7723 285° West 426 490 34,000  Level FlightAware ADS-B (EGXW / WTN)
08:15 53.3228 0.7479 285° West 424 488 34,000  Level FlightAware ADS-B
08:15 53.3315 0.6936 285° West 424 488 34,000  Level FlightAware ADS-B
08:16 53.3473 0.5950 285° West 424 488 34,000  Level FlightAware ADS-B
08:16 53.3573 0.5321 285° West 424 488 34,000  Level FlightAware ADS-B
08:17 53.3756 0.4165 285° West 426 490 34,000  Level FlightAware ADS-B (EGXW / WTN)
08:17 53.3907 0.3203 285° West 427 491 34,000  Level FlightAware ADS-B (EGXW / WTN)
08:18 53.3979 0.2744 285° West 425 489 34,000  Level FlightAware ADS-B
08:18 53.4104 0.1944 285° West 426 490 34,000  Level FlightAware ADS-B
08:18 53.4165 0.1551 285° West 426 490 34,000  Level FlightAware ADS-B
08:19 53.4315 0.0581 285° West 429 494 34,000  Level FlightAware ADS-B (EGXW / WTN)
08:19 53.4075 0.2129 105° East 429 494 34,000  Level FlightAware ADS-B (EGSQ)
08:19 53.4425 -0.0138 285° West 427 491 34,000  Level FlightAware ADS-B
08:20 53.4574 -0.1111 284° West 429 494 34,000  Level FlightAware ADS-B (EGXW / WTN)
08:20 53.4717 -0.2054 284° West 429 494 34,000  Level FlightAware ADS-B (EGXW / WTN)
08:21 53.4864 -0.3020 284° West 427 491 34,000  Level FlightAware ADS-B
08:21 53.4921 -0.3400 284° West 427 491 34,000  Level FlightAware ADS-B (EGCD)
08:21 53.4969 -0.3715 284° West 429 494 34,000  Level FlightAware ADS-B (EGXW / WTN)
08:21 53.5027 -0.4102 284° West 430 495 34,000  Level FlightAware ADS-B (EGXW / WTN)
08:21 53.5070 -0.4392 284° West 430 495 34,000  Level FlightAware ADS-B (EGXW / WTN)
08:22 53.5212 -0.5341 284° West 430 495 34,000  Level FlightAware ADS-B (EGXW / WTN)
08:22 53.5365 -0.6379 284° West 431 496 34,000  Level FlightAware ADS-B (EGXW / WTN)
08:23 53.5553 -0.7653 284° West 432 497 34,000  Level FlightAware ADS-B (EGXW / WTN)
08:23 53.5620 -0.8111 284° West 430 495 34,000  Level FlightAware ADS-B
08:24 53.5779 -0.9207 284° West 432 497 34,000  Level FlightAware ADS-B (EGXW / WTN)
08:24 53.5936 -1.0294 284° West 432 497 34,000  Level FlightAware ADS-B (EGXW / WTN)
08:25 53.6071 -1.1230 284° West 432 497 34,000  Level FlightAware ADS-B (EGXW / WTN)
08:25 53.6220 -1.2278 284° West 433 498 34,000  Level FlightAware ADS-B (EGXW / WTN)
08:26 53.6364 -1.3297 283° West 433 498 34,000  Level FlightAware ADS-B (EGCD)
08:26 53.6520 -1.4402 283° West 434 499 34,000  Level FlightAware ADS-B (EGCD)
08:27 53.6681 -1.5556 283° West 434 499 34,000  Level FlightAware ADS-B (EGXW / WTN)
08:27 53.6821 -1.6563 283° West 433 498 34,000  Level FlightAware ADS-B (EGXW / WTN)
08:28 53.6957 -1.7551 283° West 433 498 34,000  Level FlightAware ADS-B (EGXW / WTN)
08:28 53.7083 -1.8468 283° West 434 499 34,000  Level FlightAware ADS-B (EGBS)
08:29 53.7226 -1.9524 283° West 434 499 34,000  Level FlightAware ADS-B (EGXW / WTN)
08:30 53.7372 -2.0605 283° West 435 501 34,000  Level FlightAware ADS-B (EGGP / LPL)
08:30 53.7504 -2.1588 283° West 435 501 34,000  Level FlightAware ADS-B (EGGP / LPL)
08:31 53.7646 -2.2660 283° West 436 502 34,000  Level FlightAware ADS-B (EGGP / LPL)
08:31 53.7782 -2.3687 283° West 437 503 34,000  Level FlightAware ADS-B (EGGP / LPL)
08:31 53.7805 -2.3865 282° West 437 503 34,000  Level FlightAware ADS-B (EGBS)
08:32 53.7945 -2.4932 283° West 436 502 34,000  Level FlightAware ADS-B (EGCD)
08:32 53.7988 -2.5264 282° West 436 502 34,000  Level FlightAware ADS-B (EGCD)
08:32 53.8032 -2.5600 282° West 436 502 34,000  Level FlightAware ADS-B (EGCD)
08:32 53.8062 -2.5830 282° West 437 503 34,000  Level FlightAware ADS-B (EGBS)
08:33 53.8153 -2.6540 282° West 436 502 34,000  Level FlightAware ADS-B (EGCD)
08:33 53.8205 -2.6937 282° West 437 503 34,000  Level FlightAware ADS-B (EGCD)
08:33 53.8332 -2.7925 282° West 439 505 34,000  Level FlightAware ADS-B
08:34 53.8440 -2.8778 282° West 439 505 34,000  Level FlightAware ADS-B
08:34 53.8584 -2.9914 282° West 440 506 34,000  Level FlightAware ADS-B
08:35 53.8710 -3.0922 282° West 441 507 34,000  Level FlightAware ADS-B
08:35 53.8827 -3.1856 282° West 441 507 34,000  Level FlightAware ADS-B
08:36 53.8969 -3.3003 282° West 441 507 34,000  Level FlightAware ADS-B
08:36 53.9090 -3.3989 282° West 442 509 34,000  Level FlightAware ADS-B
08:37 53.9232 -3.5161 282° West 443 510 34,000  Level FlightAware ADS-B (EGBS)
08:37 53.9269 -3.5466 282° West 442 509 34,000  Level FlightAware ADS-B (EGXW / WTN)
08:37 53.9390 -3.6471 282° West 444 511 34,000  Level FlightAware ADS-B (EGGP / LPL)
08:38 53.9512 -3.7497 281° West 443 510 34,000  Level FlightAware ADS-B (EGGP / LPL)
08:39 53.9760 -3.8890 287° West 444 511 34,000  Level FlightAware
08:39 53.9913 -3.9550 292° West 445 512 34,000  Level FlightAware ADS-B (EGGP / LPL)
08:39 54.0127 -4.0453 292° West 446 513 34,000  Level FlightAware ADS-B (EGGP / LPL)
08:40 54.0438 -4.1765 292° West 446 513 34,000  Level FlightAware ADS-B
08:41 54.0675 -4.2771 292° West 446 513 34,000  Level FlightAware ADS-B
08:41 54.0921 -4.3822 292° West 446 513 34,000  Level FlightAware ADS-B (CYOW)
08:42 54.1250 -4.5238 292° West 446 513 34,000  Level FlightAware ADS-B (EGGP / LPL)
08:42 54.1480 -4.6226 292° West 446 513 34,000  Level FlightAware ADS-B (EGGP / LPL)
08:43 54.1724 -4.7284 292° West 447 514 34,000  Level FlightAware ADS-B (EGGP / LPL)
08:44 54.1971 -4.8363 291° West 446 513 34,000  Level FlightAware ADS-B (EGGP / LPL)
08:44 54.2180 -4.9280 291° West 444 511 34,000  Level FlightAware ADS-B (CYOW)
08:45 54.2425 -5.0356 291° West 444 511 34,000  Level FlightAware ADS-B (EGGP / LPL)
08:45 54.2669 -5.1436 291° West 444 511 34,000  Level FlightAware ADS-B (EGGP / LPL)
08:46 54.2581 -5.1044 111° Southeast 444 511 34,000  Level FlightAware ADS-B (EGAA / BFS)
08:46 54.3121 -5.3453 291° West 443 510 34,000  Level FlightAware ADS-B (EGGP / LPL)
08:47 54.3372 -5.4577 291° West 443 510 34,000  Level FlightAware ADS-B (EGAA / BFS)
08:47 54.3306 -5.4280 111° Southeast 440 506 34,000  Level FlightAware ADS-B (CYOW)
08:47 54.3360 -5.4522 291° West 440 506 34,000  Level FlightAware ADS-B (CYOW)
08:47 54.3680 -5.5950 291° West 442 509 34,000  Level FlightAware
08:48 54.3751 -5.6289 290° West 443 510 34,000  Level FlightAware ADS-B (EGAA / BFS)
08:48 54.3795 -5.6489 291° West 441 507 34,000  Level FlightAware ADS-B (CYOW)
08:48 54.3849 -5.6735 291° West 441 507 34,000  Level FlightAware ADS-B (CYOW)
08:49 54.4193 -5.8307 291° West 444 511 34,000  Level FlightAware ADS-B (EGAA / BFS)
08:49 54.4414 -5.9323 291° West 445 512 34,000  Level FlightAware ADS-B (EGAA / BFS)
08:50 54.4639 -6.0362 290° West 446 513 34,000  Level FlightAware ADS-B (EGAA / BFS)
08:50 54.4498 -5.9710 110° East 443 510 34,000  Level FlightAware ADS-B (CYOW)
08:50 54.4864 -6.1402 290° West 447 514 34,000  Level FlightAware ADS-B (EGAA / BFS)
08:51 54.4940 -6.1761 290° West 444 511 34,000  Level FlightAware ADS-B (CYOW)
08:51 54.4975 -6.1920 290° West 444 511 34,000  Level FlightAware ADS-B (CYOW)
08:51 54.5383 -6.3836 290° West 448 516 34,000  Level FlightAware ADS-B (EGAA / BFS)
08:52 54.5593 -6.4827 290° West 449 517 34,000  Level FlightAware ADS-B (EGAA / BFS)
08:52 54.5506 -6.4415 110° East 446 513 34,000  Level FlightAware ADS-B (CYOW)
08:52 54.5586 -6.4793 290° West 446 513 34,000  Level FlightAware ADS-B (CYOW)
08:52 54.5699 -6.5329 290° West 446 513 34,000  Level FlightAware ADS-B (CYOW)
08:53 54.5853 -6.6057 290° West 447 514 34,000  Level FlightAware ADS-B (CYOW)
08:53 54.6247 -6.7945 290° West 450 518 34,000  Level FlightAware ADS-B (EGAA / BFS)
08:54 54.6489 -6.9111 290° West 451 519 34,000  Level FlightAware ADS-B (EGAA / BFS)
08:54 54.6687 -7.0069 290° West 452 520 34,000  Level FlightAware ADS-B (EGAA / BFS)
08:55 54.6908 -7.1149 290° West 453 521 34,000  Level FlightAware ADS-B (EGAA / BFS)
08:56 54.7200 -7.2590 289° West 452 520 34,000  Level FlightAware
08:56 54.7410 -7.3630 289° West 453 521 34,000  Level FlightAware
08:57 54.7650 -7.4800 290° West 454 522 34,000  Level FlightAware
08:57 54.7860 -7.5840 289° West 453 521 34,000  Level FlightAware
08:58 54.8110 -7.7140 289° West 455 524 34,000  Level FlightAware
08:59 54.8388 -7.8515 289° West 480 552 34,000  Level FlightAware UK
08:59 54.8370 -7.8410 289° West 454 522 34,000  Level FlightAware
08:59 54.8591 -7.9548 289° West 480 552 34,000  Level FlightAware UK
08:59 54.8620 -7.9680 289° West 455 524 34,000  Level FlightAware
09:00 54.8810 -8.0690 288° West 456 525 34,000  Level FlightAware
09:00 54.9130 -8.2330 289° West 456 525 34,000  Level FlightAware
09:01 54.9396 -8.3695 289° West 480 552 34,000  Level FlightAware UK
09:01 54.9370 -8.3580 289° West 455 524 34,000 -240 Level FlightAware
09:02 54.9594 -8.4735 289° West 478 550 33,900  Descending FlightAware UK
09:02 54.9600 -8.4740 289° West 455 524 34,000 120 Climbing FlightAware
09:02 54.9810 -8.5880 288° West 455 524 34,000  Level FlightAware
09:03 55.0040 -8.7070 289° West 455 524 34,000  Level FlightAware
09:03 55.0280 -8.8360 288° West 452 520 34,000  Level FlightAware
09:04 55.0480 -8.9440 288° West 452 520 34,000  Level FlightAware
09:05 55.0740 -9.0840 288° West 453 521 34,000  Level FlightAware
09:05 55.0930 -9.1870 288° West 455 524 34,000  Level FlightAware
09:06 55.1170 -9.3150 288° West 456 525 34,000  Level FlightAware
09:06 55.1420 -9.4530 288° West 464 534 34,000  Level FlightAware
09:07 55.1640 -9.5760 287° West 466 536 34,000  Level FlightAware
09:07 55.1840 -9.6880 287° West 468 539 34,000  Level FlightAware
09:08 55.2090 -9.8310 287° West 470 541 34,000  Level FlightAware
09:09 55.2330 -9.9610 288° West 471 542 34,000  Level FlightAware
09:09 55.2590 -10.1100 287° West 473 544 34,000  Level FlightAware
09:10 55.2780 -10.2260 286° West 473 544 34,000 120 Level FlightAware
09:11 55.3070 -10.3860 288° West 475 547 34,200 540 Climbing FlightAware
09:11 55.3220 -10.4790 286° West 474 545 34,600 900 Climbing FlightAware
09:12 55.3470 -10.6230 287° West 473 544 35,200 960 Climbing FlightAware
09:12 55.3690 -10.7550 286° West 472 543 35,700 660 Climbing FlightAware
09:13 55.3910 -10.8810 287° West 471 542 36,000 180 Climbing FlightAware
09:14 55.4200 -11.0570 286° West 470 541 36,000  Level FlightAware
09:14 55.4430 -11.1960 286° West 470 541 36,000  Level FlightAware
09:15 55.4640 -11.3290 286° West 470 541 36,000  Level FlightAware
09:15 55.4860 -11.4600 287° West 469 540 36,000  Level FlightAware
09:16 55.5090 -11.6040 286° West 467 537 36,000  Level FlightAware
09:17 55.5300 -11.7350 286° West 466 536 36,000  Level FlightAware
09:17 55.5560 -11.9000 286° West 466 536 36,000  Level FlightAware
09:18 55.5760 -12.0340 285° West 465 535 36,000  Level FlightAware
09:19 55.6000 -12.1790 286° West 465 535 36,000  Level FlightAware
09:19 55.6160 -12.2980 283° West 465 535 36,000  Level FlightAware
09:20 55.6320 -12.4120 284° West 465 535 36,000  Level FlightAware
09:21 55.6640 -12.6030 287° West 464 534 36,000  Level FlightAware
09:21 55.6840 -12.7310 286° West 464 534 36,000  Level FlightAware
09:22 55.6990 -12.8510 283° West 464 534 36,000  Level FlightAware
09:22 55.7250 -13.0110 286° West 465 535 36,000  Level FlightAware
09:23 55.7460 -13.1500 285° West 465 535 36,000  Level FlightAware
09:24 55.7680 -13.3040 284° West 464 534 36,000  Level FlightAware
09:24 55.7830 -13.4090 284° West 463 533 36,000  Level FlightAware
09:25 55.7990 -13.5260 284° West 463 533 36,000  Level FlightAware
09:26 55.8150 -13.6390 284° West 463 533 36,000  Level FlightAware
09:26 55.8310 -13.7520 284° West 463 533 36,000  Level FlightAware
09:27 55.8470 -13.8650 284° West 463 533 36,000  Level FlightAware
09:27 55.8630 -13.9790 284° West 463 533 36,000  Level FlightAware
09:28 55.8800 -14.0980 284° West 463 533 36,000  Level FlightAware
09:29 55.8950 -14.2120 283° West 463 533 36,000  Level FlightAware
09:29 55.9120 -14.3280 285° West 463 533 36,000  Level FlightAware
09:30 55.9270 -14.4350 284° West 463 533 36,000  Level FlightAware
09:30 55.9420 -14.5490 283° West 463 533 36,000  Level FlightAware
09:31 55.9580 -14.6630 284° West 463 533 36,000  Level FlightAware
09:32 55.9750 -14.7790 285° West 463 533 36,000  Level FlightAware
09:32 55.9900 -14.8930 283° West 463 533 36,000  Level FlightAware
09:33 56.0010 -14.9720 284° West 463 533 36,000  Level FlightAware
09:33 56.0180 -15.0890 285° West 463 533 36,000  Level FlightAware
09:34 56.0390 -15.2410 284° West 463 533 36,000  Level FlightAware
09:37 56.1141 -15.7512 285° West  Level Estimated
09:38 56.1441 -15.9600 285° West  Level Estimated
09:39 56.1739 -16.1692 284° West  Level Estimated
09:40 56.2032 -16.3787 284° West  Level Estimated
09:41 56.2322 -16.5885 284° West  Level Estimated
09:42 56.2608 -16.7986 284° West  Level Estimated
09:43 56.2891 -17.0090 284° West  Level Estimated
09:44 56.3170 -17.2197 284° West  Level Estimated
09:45 56.3446 -17.4307 283° West  Level Estimated
09:46 56.3718 -17.6421 283° West  Level Estimated
09:47 56.3993 -17.8594 283° West  Level Estimated
09:48 56.4265 -18.0771 283° West  Level Estimated
09:49 56.4533 -18.2951 283° West  Level Estimated
09:50 56.4797 -18.5134 282° West  Level Estimated
09:51 56.5058 -18.7320 282° West  Level Estimated
09:52 56.5314 -18.9509 282° West  Level Estimated
09:53 56.5567 -19.1701 282° West  Level Estimated
09:54 56.5816 -19.3896 282° West  Level Estimated
09:55 56.6060 -19.6094 282° West  Level Estimated
09:56 56.6301 -19.8294 281° West  Level Estimated
09:56 57.0000 -20.0000 285° West 436 502 36,000  Level ETMS Enhanced Traffic Management System
09:57 56.6539 -20.0497 281° West  Level Estimated
09:58 56.6767 -20.2658 281° West  Level Estimated
09:59 56.6992 -20.4822 281° West  Level Estimated
10:00 56.7213 -20.6988 281° West  Level Estimated
10:01 56.7430 -20.9156 280° West  Level Estimated
10:02 57.1785 -21.2990 284° West 436 502 36,000  Level FlightAware Transoceanic
10:03 57.2069 -21.5167 283° West 436 502 36,000  Level FlightAware Transoceanic
10:04 57.2350 -21.7347 283° West 436 502 36,000  Level FlightAware Transoceanic
10:05 57.2627 -21.9531 283° West 436 502 36,000  Level FlightAware Transoceanic
10:06 57.2900 -22.1718 283° West 436 502 36,000  Level FlightAware Transoceanic
10:07 57.3169 -22.3908 283° West 436 502 36,000  Level FlightAware Transoceanic
10:08 57.3434 -22.6101 283° West 436 502 36,000  Level FlightAware Transoceanic
10:09 57.3696 -22.8298 282° West 436 502 36,000  Level FlightAware Transoceanic
10:10 57.3954 -23.0497 282° West 436 502 36,000  Level FlightAware Transoceanic
10:11 57.4208 -23.2700 282° West 436 502 36,000  Level FlightAware Transoceanic
10:12 57.4458 -23.4905 282° West 436 502 36,000  Level FlightAware Transoceanic
10:13 57.4704 -23.7114 282° West 436 502 36,000  Level FlightAware Transoceanic
10:14 57.4946 -23.9326 281° West 436 502 36,000  Level FlightAware Transoceanic
10:15 57.5185 -24.1540 281° West 436 502 36,000  Level FlightAware Transoceanic
10:16 57.5419 -24.3757 281° West 436 502 36,000  Level FlightAware Transoceanic
10:17 57.5650 -24.5978 281° West 436 502 36,000  Level FlightAware Transoceanic
10:18 57.5877 -24.8201 281° West 436 502 36,000  Level FlightAware Transoceanic
10:19 57.6100 -25.0427 280° West 436 502 36,000  Level FlightAware Transoceanic
10:20 57.6319 -25.2655 280° West 436 502 36,000  Level FlightAware Transoceanic
10:21 57.6534 -25.4886 280° West 436 502 36,000  Level FlightAware Transoceanic
10:22 57.6745 -25.7120 280° West 436 502 36,000  Level FlightAware Transoceanic
10:23 57.6952 -25.9356 280° West 436 502 36,000  Level FlightAware Transoceanic
10:24 57.7155 -26.1595 280° West 436 502 36,000  Level FlightAware Transoceanic
10:25 57.7355 -26.3836 279° West 436 502 36,000  Level FlightAware Transoceanic
10:26 57.7550 -26.6080 279° West 436 502 36,000  Level FlightAware Transoceanic
10:27 57.7742 -26.8327 279° West 436 502 36,000  Level FlightAware Transoceanic
10:28 57.7929 -27.0575 279° West 436 502 36,000  Level FlightAware Transoceanic
10:29 57.8112 -27.2826 279° West 436 502 36,000  Level FlightAware Transoceanic
10:30 57.8292 -27.5079 278° West 436 502 36,000  Level FlightAware Transoceanic
10:31 57.8467 -27.7335 278° West 436 502 36,000  Level FlightAware Transoceanic
10:32 57.8638 -27.9592 278° West 436 502 36,000  Level FlightAware Transoceanic
10:33 57.8806 -28.1852 278° West 436 502 36,000  Level FlightAware Transoceanic
10:34 57.8969 -28.4114 278° West 436 502 36,000  Level FlightAware Transoceanic
10:35 57.9129 -28.6377 277° West 436 502 36,000  Level FlightAware Transoceanic
10:36 57.9284 -28.8643 277° West 436 502 36,000  Level FlightAware Transoceanic
10:37 57.9435 -29.0911 277° West 436 502 36,000  Level FlightAware Transoceanic
10:38 57.9582 -29.3180 277° West 436 502 36,000  Level FlightAware Transoceanic
10:39 57.9726 -29.5452 277° West 436 502 36,000  Level FlightAware Transoceanic
10:40 57.9865 -29.7725 276° West 436 502 36,000  Level FlightAware Transoceanic
10:41 58.0000 -29.9992 276° West  Level FlightAware Approximate
10:42 58.0117 -30.2264 276° West  Level FlightAware Approximate
10:43 58.0087 -30.2261 274° West  Level FlightAware Approximate
10:44 58.0170 -30.4538 274° West  Level FlightAware Approximate
10:45 58.0250 -30.6817 274° West  Level FlightAware Approximate
10:46 58.0325 -30.9096 274° West  Level FlightAware Approximate
10:47 58.0396 -31.1376 273° West  Level FlightAware Approximate
10:48 58.0463 -31.3658 273° West  Level FlightAware Approximate
10:49 58.0526 -31.5940 273° West  Level FlightAware Approximate
10:50 58.0585 -31.8223 273° West  Level FlightAware Approximate
10:51 58.0640 -32.0506 273° West  Level FlightAware Approximate
10:52 58.0691 -32.2790 273° West  Level FlightAware Approximate
10:53 58.0738 -32.5075 272° West  Level FlightAware Approximate
10:54 58.0780 -32.7360 272° West  Level FlightAware Approximate
10:55 58.0819 -32.9646 272° West  Level FlightAware Approximate
10:56 58.0853 -33.1933 272° West  Level FlightAware Approximate
10:57 58.0883 -33.4220 272° West  Level FlightAware Approximate
10:58 58.0910 -33.6507 271° West  Level FlightAware Approximate
10:59 58.0932 -33.8794 271° West  Level FlightAware Approximate
11:00 58.0950 -34.1082 271° West  Level FlightAware Approximate
11:01 58.0964 -34.3370 271° West  Level FlightAware Approximate
11:02 58.0973 -34.5658 271° West  Level FlightAware Approximate
11:03 58.0979 -34.7946 270° West  Level FlightAware Approximate
11:04 58.0981 -35.0234 270° West  Level FlightAware Approximate
11:05 58.0978 -35.2523 270° West  Level FlightAware Approximate
11:06 58.0972 -35.4811 270° West  Level FlightAware Approximate
11:07 58.0961 -35.7099 270° West  Level FlightAware Approximate
11:08 58.0946 -35.9387 269° West  Level FlightAware Approximate
11:09 58.0927 -36.1674 269° West  Level FlightAware Approximate
11:10 58.0904 -36.3962 269° West  Level FlightAware Approximate
11:11 58.0877 -36.6249 269° West  Level FlightAware Approximate
11:11 58.0833 -36.7833 268° West 460 529 36,000  Level Gander Center
11:12 58.0846 -36.8536 269° West  Level FlightAware Approximate
11:12 58.0833 -37.0167 270° West 460 529 36,000  Level Gander Center
11:13 58.0811 -37.0822 268° West  Level FlightAware Approximate
11:13 58.0667 -37.2500 262° West 460 529 36,000  Level Gander Center
11:14 58.0772 -37.3108 268° West  Level FlightAware Approximate
11:14 58.0667 -37.4833 270° West 460 529 36,000  Level Gander Center
11:15 58.0728 -37.5393 268° West  Level FlightAware Approximate
11:15 58.0667 -37.7167 270° West 460 529 36,000  Level Gander Center
11:16 58.0681 -37.7678 268° West  Level FlightAware Approximate
11:16 58.0667 -37.9833 270° West 460 529 36,000  Level Gander Center
11:17 58.0667 -38.2167 270° West 460 529 36,000  Level Gander Center
11:18 58.0500 -38.4500 262° West 460 529 36,000  Level Gander Center
11:19 58.0500 -38.6833 270° West 460 529 36,000  Level Gander Center
11:20 58.0500 -38.9167 270° West 460 529 36,000  Level Gander Center
11:21 58.0333 -39.1500 262° West 450 518 36,000  Level Gander Center
11:22 58.0333 -39.3833 270° West 460 529 36,000  Level Gander Center
11:23 58.0167 -39.6167 262° West 450 518 36,000  Level Gander Center
11:24 58.0000 -39.8667 263° West 450 518 36,000  Level Gander Center
11:25 57.9833 -40.1000 262° West 450 518 36,000  Level Gander Center
11:26 57.9833 -40.3333 270° West 450 518 36,000  Level Gander Center
11:27 57.9667 -40.5667 262° West 450 518 36,000  Level Gander Center
11:28 57.9500 -40.8000 262° West 460 529 36,000  Level Gander Center
11:29 57.9333 -41.0333 262° West 450 518 36,000  Level Gander Center
11:30 57.9167 -41.2667 262° West 460 529 36,000  Level Gander Center
11:31 57.9000 -41.5000 262° West 460 529 36,000  Level Gander Center
11:32 57.8833 -41.7333 262° West 460 529 36,000  Level Gander Center
11:33 57.8667 -41.9833 263° West 460 529 36,000  Level Gander Center
11:34 57.8500 -42.2167 262° West 460 529 36,000  Level Gander Center
11:35 57.8333 -42.4500 262° West 460 529 36,000  Level Gander Center
11:36 57.8167 -42.6833 262° West 460 529 36,000  Level Gander Center
11:37 57.7833 -42.9167 255° West 470 541 36,000  Level Gander Center
11:38 57.7667 -43.1500 262° West 470 541 36,000  Level Gander Center
11:39 57.7500 -43.3833 262° West 470 541 36,000  Level Gander Center
11:40 57.7333 -43.6167 262° West 470 541 36,000  Level Gander Center
11:41 57.7167 -43.8500 262° West 470 541 36,000  Level Gander Center
11:42 57.7000 -44.1167 263° West 470 541 36,000  Level Gander Center
11:43 57.6833 -44.3500 262° West 470 541 36,000  Level Gander Center
11:44 57.6500 -44.5833 255° West 470 541 36,000  Level Gander Center
11:45 57.6167 -44.8167 255° West 460 529 36,000  Level Gander Center
11:46 57.6000 -45.0500 263° West 460 529 36,000  Level Gander Center
11:47 57.5833 -45.2833 263° West 460 529 36,000  Level Gander Center
11:48 57.5500 -45.5167 255° West 460 529 36,000  Level Gander Center
11:49 57.5333 -45.7500 263° West 450 518 36,000  Level Gander Center
11:50 57.5167 -45.9833 263° West 450 518 36,000  Level Gander Center
11:51 57.4833 -46.2167 255° West 450 518 36,000  Level Gander Center
11:52 57.4667 -46.4333 262° West 450 518 36,000  Level Gander Center
11:53 57.4333 -46.6333 253° West 450 518 36,000  Level Gander Center
11:54 57.4167 -46.8667 263° West 450 518 36,000  Level Gander Center
11:55 57.3833 -47.1000 255° West 450 518 36,000  Level Gander Center
11:56 57.3500 -47.3333 255° West 450 518 36,000  Level Gander Center
11:57 57.3333 -47.5667 263° West 450 518 36,000  Level Gander Center
11:58 57.3000 -47.7833 254° West 460 529 36,000  Level Gander Center
11:59 57.2667 -48.0167 255° West 460 529 36,000  Level Gander Center
12:00 57.2333 -48.2500 255° West 460 529 36,000  Level Gander Center
12:01 57.2000 -48.4833 255° West 460 529 36,000  Level Gander Center
12:02 57.1833 -48.7000 262° West 460 529 36,000  Level Gander Center
12:03 57.1500 -48.9333 255° West 460 529 36,000  Level Gander Center
12:04 57.1167 -49.1667 255° West 460 529 36,000  Level Gander Center
12:05 57.1000 -49.3833 262° West 460 529 36,000  Level Gander Center
12:06 57.0667 -49.6167 255° West 460 529 36,000  Level Gander Center
12:07 57.0333 -49.8333 254° West 460 529 36,000  Level Gander Center
12:08 57.0000 -50.0667 255° West 460 529 36,000  Level Gander Center
12:09 56.9500 -50.2667 245° Southwest 460 529 36,000  Level Gander Center
12:11 56.9009 -50.5353 252° West  Level FlightAware Approximate
12:18 56.6231 -51.9880 251° West  Level FlightAware Approximate
12:19 56.5820 -52.1937 250° West  Level FlightAware Approximate
12:20 56.5406 -52.3990 250° West  Level FlightAware Approximate
12:21 56.4990 -52.6040 250° West  Level FlightAware Approximate
12:21 56.4500 -52.8333 249° West 450 518 36,000  Level Gander Center
12:22 56.4573 -52.8086 250° West  Level FlightAware Approximate
12:22 56.4167 -53.0667 256° West 450 518 36,000  Level Gander Center
12:23 56.4152 -53.0128 250° West  Level FlightAware Approximate
12:23 56.3667 -53.2833 247° West 450 518 36,000  Level Gander Center
12:24 56.3729 -53.2166 249° West  Level FlightAware Approximate
12:24 56.3333 -53.4667 252° West 450 518 36,000  Level Gander Center
12:25 56.3301 -53.4199 249° West  Level FlightAware Approximate
12:25 56.3000 -53.6833 255° West 450 518 36,000  Level Gander Center
12:26 56.2871 -53.6227 249° West  Level FlightAware Approximate
12:26 56.2333 -53.8833 239° Southwest 440 506 36,000  Level Gander Center
12:27 56.2000 -54.1000 255° West 440 506 36,000  Level Gander Center
12:28 56.1500 -54.3167 248° West 450 518 36,000  Level Gander Center
12:29 56.1000 -54.5167 246° West 440 506 36,000  Level Gander Center
12:31 56.0209 -54.8454 247° West  Level FlightAware Approximate
12:32 55.9500 -55.1667 247° West 450 518 36,000  Level Gander Center
12:33 55.9167 -55.3500 252° West 450 518 36,000  Level Gander Center
12:34 55.8667 -55.5333 244° Southwest 440 506 36,000 360 Level Gander Center
12:35 55.8500 -55.7500 262° West 440 506 36,800 480 Climbing Gander Center
12:36 55.8000 -55.9667 248° West 440 506 37,000 300 Climbing Gander Center
12:37 55.7667 -56.1667 254° West 450 518 37,500 360 Climbing Gander Center
12:38 55.7333 -56.3833 255° West 450 518 37,800 240 Climbing Gander Center
12:39 55.7000 -56.6333 257° West 460 529 38,000 60 Climbing Gander Center
12:40 55.6500 -56.8333 246° West 460 529 38,000  Level Gander Center
12:41 55.6167 -57.0500 255° West 460 529 38,000  Level Gander Center
12:42 55.5833 -57.2667 255° West 460 529 38,000  Level Gander Center
12:43 55.5500 -57.4667 254° West 460 529 38,000  Level Gander Center
12:44 55.5167 -57.6833 255° West 460 529 38,000  Level Gander Center
12:45 55.4667 -57.9000 248° West 460 529 38,000  Level Gander Center
12:46 55.4333 -58.1333 256° West 460 529 38,000  Level Gander Center
12:47 55.4000 -58.3333 254° West 460 529 38,000  Level Gander Center
12:48 55.3500 -58.5500 248° West 460 529 38,000  Level Gander Center
12:49 55.3167 -58.7500 254° West 460 529 38,000  Level Gander Center
12:50 55.2667 -59.0000 251° West 450 518 38,000  Level Gander Center
12:51 55.2333 -59.1667 251° West 450 518 38,000  Level Gander Center
12:52 55.1833 -59.4167 251° West 450 518 38,000  Level Gander Center
12:53 55.1500 -59.5833 251° West 450 518 38,000  Level Gander Center
12:54 55.1000 -59.8000 248° West 440 506 38,000  Level Gander Center
12:55 55.0667 -60.0000 254° West 450 518 38,000  Level Gander Center
12:56 55.0333 -60.2000 254° West 450 518 38,000  Level Gander Center
12:57 54.9833 -60.4333 250° West 450 518 38,000  Level Gander Center
12:58 54.9500 -60.6500 255° West 460 529 38,000  Level Gander Center
12:59 54.9000 -60.8500 247° West 460 529 38,000  Level Gander Center
13:00 54.8500 -61.0500 247° West 460 529 38,000  Level Gander Center
13:01 54.8000 -61.2833 250° West 460 529 38,000  Level Gander Center
13:02 54.7667 -61.4833 254° West 470 541 38,000  Level Gander Center
13:03 54.7167 -61.6833 247° West 470 541 38,000  Level Gander Center
13:04 54.6667 -61.8833 247° West 470 541 38,000  Level Gander Center
13:05 54.6333 -62.0833 254° West 470 541 38,000  Level Gander Center
13:06 54.5833 -62.3167 250° West 470 541 38,000  Level Gander Center
13:07 54.5333 -62.5167 247° West 470 541 38,000  Level Gander Center
13:08 54.4667 -62.7500 244° Southwest 470 541 38,000  Level Gander Center
13:09 54.4167 -62.9500 247° West 470 541 38,000  Level Gander Center
13:10 54.3667 -63.1833 250° West 470 541 38,000  Level Gander Center
13:11 54.3333 -63.3667 253° West 470 541 38,000  Level Gander Center
13:12 54.2833 -63.5667 247° West 470 541 38,000  Level Gander Center
13:13 54.2167 -63.8000 244° Southwest 480 552 38,000  Level Gander Center
13:14 54.1667 -64.0000 247° West 480 552 38,000  Level Gander Center
13:15 54.1333 -64.2167 255° West 480 552 38,000  Level Gander Center
13:16 54.0667 -64.4167 240° Southwest 470 541 38,000  Level Gander Center
13:17 54.0167 -64.6167 247° West 470 541 38,000  Level Gander Center
13:18 53.9833 -64.8000 253° West 480 552 38,000  Level Gander Center
13:19 53.9167 -65.0333 244° Southwest 470 541 38,000  Level Gander Center
13:20 53.8667 -65.2167 245° Southwest 470 541 38,000  Level Gander Center
13:21 53.8167 -65.4500 250° West 460 529 38,000  Level Gander Center
13:22 53.7833 -65.5333 236° Southwest 480 552 38,000  Level Montreal Center
13:23 53.7333 -65.7167 245° Southwest 460 529 38,000  Level Montreal Center
13:24 53.6667 -65.9000 239° Southwest 470 541 38,000  Level Montreal Center
13:25 53.6167 -66.1167 249° West 470 541 38,000  Level Montreal Center
13:26 53.5667 -66.3000 245° Southwest 460 529 38,000  Level Montreal Center
13:27 53.5167 -66.5167 249° West 470 541 38,000  Level Montreal Center
13:28 53.4500 -66.7333 243° Southwest 460 529 38,000  Level Montreal Center
13:29 53.4000 -66.9333 247° West 470 541 38,000  Level Montreal Center
13:30 53.3500 -67.1500 249° West 470 541 38,000  Level Montreal Center
13:31 53.3000 -67.3000 241° Southwest 470 541 38,000  Level Montreal Center
13:32 53.2333 -67.5333 245° Southwest 460 529 38,000  Level Montreal Center
13:33 53.1667 -67.7167 239° Southwest 460 529 38,000  Level Montreal Center
13:34 53.1167 -67.9000 246° West 460 529 38,000  Level Montreal Center
13:35 53.0667 -68.1000 247° West 450 518 38,000  Level Montreal Center
13:36 53.0000 -68.2833 239° Southwest 460 529 38,000  Level Montreal Center
13:37 52.9500 -68.5000 249° West 460 529 38,000  Level Montreal Center
13:38 52.9000 -68.6667 244° Southwest 470 541 38,000  Level Montreal Center
13:39 52.8333 -68.8833 243° Southwest 470 541 38,000  Level Montreal Center
13:40 52.7667 -69.0500 237° Southwest 470 541 38,000  Level Montreal Center
13:41 52.7167 -69.2667 249° West 470 541 38,000  Level Montreal Center
13:42 52.6500 -69.4667 241° Southwest 470 541 38,000  Level Montreal Center
13:43 52.6000 -69.6333 244° Southwest 470 541 38,000  Level Montreal Center
13:44 52.5167 -69.8500 238° Southwest 470 541 38,000  Level Montreal Center
13:45 52.4667 -70.0500 248° West 470 541 38,000  Level Montreal Center
13:46 52.4167 -70.2500 248° West 470 541 38,000  Level Montreal Center
13:47 52.3500 -70.4167 237° Southwest 470 541 38,000  Level Montreal Center
13:48 52.3000 -70.6167 248° West 470 541 38,000  Level Montreal Center
13:49 52.2333 -70.8000 239° Southwest 480 552 38,000  Level Montreal Center
13:50 52.1500 -71.0000 236° Southwest 470 541 38,000  Level Montreal Center
13:51 52.1000 -71.2000 248° West 480 552 38,000  Level Montreal Center
13:52 52.0333 -71.3667 237° Southwest 470 541 38,000  Level Montreal Center
13:53 51.9833 -71.5667 248° West 470 541 38,000  Level Montreal Center
13:54 51.9000 -71.7667 236° Southwest 470 541 38,000  Level Montreal Center
13:55 51.8333 -71.9667 242° Southwest 480 552 38,000  Level Montreal Center
13:56 51.7833 -72.1500 246° West 480 552 38,000  Level Montreal Center
13:57 51.7167 -72.3167 237° Southwest 480 552 38,000  Level Montreal Center
13:58 51.6333 -72.5167 236° Southwest 480 552 38,000  Level Montreal Center
13:59 51.5833 -72.7167 248° West 470 541 38,000  Level Montreal Center
14:00 51.5167 -72.8833 237° Southwest 470 541 38,000  Level Montreal Center
14:01 51.4500 -73.0667 240° Southwest 470 541 38,000  Level Montreal Center
14:02 51.3833 -73.2333 237° Southwest 470 541 38,000  Level Montreal Center
14:03 51.3167 -73.4333 242° Southwest 470 541 38,000  Level Montreal Center
14:04 51.2500 -73.6333 242° Southwest 470 541 38,000  Level Montreal Center
14:05 51.1833 -73.7833 235° Southwest 470 541 38,000  Level Montreal Center
14:06 51.1167 -73.9833 242° Southwest 470 541 38,000  Level Montreal Center
14:07 51.0500 -74.1667 240° Southwest 470 541 38,000  Level Montreal Center
14:08 50.9833 -74.3333 238° Southwest 470 541 38,000  Level Montreal Center
14:09 50.9000 -74.5167 234° Southwest 470 541 38,000  Level Montreal Center
14:10 50.8500 -74.7167 248° West 480 552 38,000  Level Montreal Center
14:11 50.7833 -74.8667 235° Southwest 480 552 38,000  Level Montreal Center
14:12 50.7167 -75.0667 242° Southwest 480 552 38,000  Level Montreal Center
14:13 50.6333 -75.2500 234° Southwest 480 552 38,000  Level Montreal Center
14:14 50.5667 -75.4333 240° Southwest 480 552 38,000  Level Montreal Center
14:15 50.5000 -75.6000 238° Southwest 480 552 38,000  Level Montreal Center
14:16 50.4167 -75.7833 235° Southwest 480 552 38,000  Level Montreal Center
14:17 50.3500 -75.9667 240° Southwest 480 552 38,000  Level Montreal Center
14:18 50.2833 -76.1500 240° Southwest 480 552 38,000  Level Montreal Center
14:19 50.2167 -76.3000 235° Southwest 470 541 38,000  Level Montreal Center
14:20 50.1500 -76.4833 240° Southwest 470 541 38,000  Level Montreal Center
14:21 50.0667 -76.6667 235° Southwest 470 541 38,000  Level Montreal Center
14:22 49.9833 -76.8500 235° Southwest 470 541 38,000  Level Montreal Center
14:23 49.9167 -77.0167 238° Southwest 470 541 38,000  Level Montreal Center
14:24 49.8500 -77.2000 241° Southwest 470 541 38,000  Level Montreal Center
14:25 49.7833 -77.3500 235° Southwest 470 541 38,000  Level Montreal Center
14:26 49.7167 -77.5333 241° Southwest 470 541 38,000  Level Montreal Center
14:27 49.6333 -77.7000 232° Southwest 470 541 38,000  Level Montreal Center
14:28 49.5500 -77.8500 229° Southwest 470 541 38,000  Level Montreal Center
14:29 49.4833 -78.0333 241° Southwest 480 552 38,000  Level Montreal Center
14:30 49.4000 -78.1833 230° Southwest 480 552 38,000  Level Montreal Center
14:31 49.3500 -78.4000 251° West 470 541 38,000  Level Montreal Center
14:32 49.2500 -78.5500 224° Southwest 480 552 38,000  Level Montreal Center
14:33 49.1833 -78.7167 239° Southwest 470 541 38,000  Level Montreal Center
14:34 49.1167 -78.8667 236° Southwest 480 552 38,000  Level Montreal Center
14:35 49.0500 -79.0500 241° Southwest 470 541 38,000  Level Montreal Center
14:36 48.9667 -79.2167 233° Southwest 470 541 38,000  Level Montreal Center
14:37 48.8833 -79.4000 235° Southwest 470 541 38,000  Level Montreal Center
14:38 48.8167 -79.5333 233° Southwest 470 541 38,000  Level Montreal Center
14:39 48.7333 -79.6833 230° Southwest 460 529 38,000  Level Montreal Center
14:40 48.6667 -79.8667 241° Southwest 470 541 38,000  Level Montreal Center
14:41 48.5833 -80.0333 233° Southwest 460 529 38,000  Level Montreal Center
14:42 48.5167 -80.1833 236° Southwest 460 529 38,000  Level Montreal Center
14:43 48.4500 -80.3500 239° Southwest 470 541 38,000  Level Montreal Center
14:44 48.3500 -80.5167 228° Southwest 460 529 38,000  Level Montreal Center
14:45 48.2833 -80.6667 236° Southwest 460 529 38,000  Level Montreal Center
14:50 47.8780 -81.5040 236° Southwest 472 543 38,000  Level FlightAware
14:51 47.8290 -81.6040 234° Southwest 472 543 38,000  Level FlightAware
14:51 47.7880 -81.6870 234° Southwest 471 542 38,000  Level FlightAware
14:52 47.7390 -81.7830 233° Southwest 473 544 38,000  Level FlightAware
14:52 47.6940 -81.8730 233° Southwest 473 544 38,000  Level FlightAware
14:53 47.6560 -81.9500 234° Southwest 473 544 38,000  Level FlightAware
14:54 47.6030 -82.0550 233° Southwest 473 544 38,000  Level FlightAware
14:54 47.5590 -82.1410 233° Southwest 473 544 38,000  Level FlightAware
14:55 47.5000 -82.2560 233° Southwest 472 543 38,000  Level FlightAware
14:55 47.4560 -82.3430 233° Southwest 472 543 38,000  Level FlightAware
14:56 47.4120 -82.4300 233° Southwest 472 543 38,000  Level FlightAware
14:57 47.3690 -82.5140 233° Southwest 471 542 38,000  Level FlightAware
14:57 47.3190 -82.6110 233° Southwest 471 542 38,000  Level FlightAware
14:58 47.2720 -82.7010 232° Southwest 471 542 38,000  Level FlightAware
14:58 47.2300 -82.7820 233° Southwest 471 542 38,000  Level FlightAware
14:59 47.1820 -82.8760 233° Southwest 470 541 38,000  Level FlightAware
15:00 47.1340 -82.9660 232° Southwest 470 541 38,000  Level FlightAware
15:00 47.0910 -83.0480 232° Southwest 470 541 38,000  Level FlightAware
15:01 47.0430 -83.1400 233° Southwest 469 540 38,000  Level FlightAware
15:01 46.9960 -83.2300 233° Southwest 469 540 38,000  Level FlightAware
15:02 46.9490 -83.3180 232° Southwest 469 540 38,000  Level FlightAware
15:02 46.9030 -83.4050 232° Southwest 469 540 38,000  Level FlightAware
15:03 46.8560 -83.4930 232° Southwest 469 540 38,000  Level FlightAware
15:04 46.8130 -83.5740 232° Southwest 469 540 38,000  Level FlightAware
15:04 46.7680 -83.6590 232° Southwest 469 540 38,000  Level FlightAware
15:05 46.7180 -83.7510 232° Southwest 468 539 38,000  Level FlightAware
15:05 46.6720 -83.8370 232° Southwest 467 537 38,000  Level FlightAware
15:06 46.6200 -83.9330 232° Southwest 467 537 38,000  Level FlightAware
15:07 46.5720 -84.0220 232° Southwest 466 536 38,000  Level FlightAware
15:07 46.5310 -84.0980 232° Southwest 465 535 38,000  Level FlightAware
15:08 46.4870 -84.1780 231° Southwest 464 534 38,000  Level FlightAware
15:08 46.4340 -84.2710 230° Southwest 469 540 38,000  Level FlightAware
15:08 46.4130 -84.2950 218° Southwest 479 551 38,000  Level FlightAware
15:09 46.3830 -84.3180 208° Southwest 493 567 38,000  Level FlightAware
15:09 46.3550 -84.3300 196° South 504 580 38,000  Level FlightAware
15:10 46.2680 -84.3610 194° South 501 577 38,000  Level FlightAware
15:10 46.2040 -84.3870 196° South 500 575 38,000  Level FlightAware
15:11 46.1360 -84.4120 194° South 501 577 38,000 -180 Level FlightAware
15:11 46.0100 -84.4560 194° South 502 578 37,800 -540 Descending FlightAware
15:12 45.9290 -84.4830 193° South 503 579 37,200 -960 Descending FlightAware
15:13 45.8600 -84.5060 193° South 501 577 36,800 -780 Descending FlightAware
15:13 45.7810 -84.5330 193° South 497 572 36,400 -660 Descending FlightAware
15:14 45.6950 -84.5610 193° South 494 568 36,000 -360 Descending FlightAware
15:14 45.6260 -84.5840 193° South 494 568 36,000  Level FlightAware
15:15 45.5430 -84.6120 193° South 495 570 36,000  Level FlightAware
15:16 45.4650 -84.6390 194° South 496 571 36,000  Level FlightAware
15:16 45.3860 -84.6650 193° South 496 571 36,000  Level FlightAware
15:17 45.3070 -84.6920 194° South 496 571 36,000  Level FlightAware
15:17 45.2310 -84.7170 193° South 496 571 36,000  Level FlightAware
15:18 45.1510 -84.7440 193° South 496 571 36,000  Level FlightAware
15:18 45.0760 -84.7680 193° South 496 571 36,000  Level FlightAware
15:19 45.0010 -84.7930 193° South 496 571 36,000  Level FlightAware
15:20 44.9160 -84.8210 193° South 496 571 36,000 -120 Level FlightAware
15:20 44.8230 -84.8520 193° South 497 572 35,900 -1,020 Descending FlightAware
15:21 44.7510 -84.8760 193° South 508 585 34,900 -1,740 Descending FlightAware
15:21 44.6650 -84.9040 193° South 517 595 33,900 -1,380 Descending FlightAware
15:22 44.5840 -84.9300 193° South 514 592 33,300 -1,140 Descending FlightAware
15:23 44.4880 -84.9610 193° South 514 592 32,500 -1,020 Descending FlightAware
15:23 44.4020 -84.9890 193° South 516 594 32,000 -480 Descending FlightAware
15:24 44.3280 -85.0130 193° South 515 593 32,000  Level FlightAware
15:24 44.2440 -85.0400 193° South 515 593 32,000  Level FlightAware
15:25 44.1570 -85.0680 193° South 515 593 32,000  Level FlightAware
15:26 44.0890 -85.0900 193° South 515 593 32,000  Level FlightAware
15:26 43.9970 -85.1190 193° South 515 593 32,000  Level FlightAware
15:27 43.9190 -85.1440 193° South 515 593 32,000  Level FlightAware
15:27 43.8350 -85.1700 193° South 515 593 32,000  Level FlightAware
15:28 43.7510 -85.1970 193° South 514 592 32,000  Level FlightAware
15:29 43.6700 -85.2230 193° South 514 592 32,000  Level FlightAware
15:29 43.5950 -85.2460 193° South 514 592 32,000  Level FlightAware
15:30 43.5110 -85.2730 193° South 513 590 32,000  Level FlightAware
15:30 43.4310 -85.2980 193° South 513 590 32,000 -720 Level FlightAware
15:31 43.3450 -85.3250 193° South 506 582 31,200 -1,680 Descending FlightAware
15:31 43.2730 -85.3470 193° South 494 568 30,100 -1,920 Descending FlightAware
15:32 43.1960 -85.3710 193° South 478 550 29,100 -1,500 Descending FlightAware
15:33 43.1230 -85.3940 193° South 458 527 28,400 -1,560 Descending FlightAware
15:33 43.0490 -85.4170 193° South 449 517 27,300 -1,740 Descending FlightAware
15:34 42.9820 -85.4370 192° South 438 504 26,400 -1,560 Descending FlightAware
15:34 42.9090 -85.4590 192° South 430 495 25,500 -1,380 Descending FlightAware
15:35 42.8450 -85.4790 193° South 423 487 24,800 -1,680 Descending FlightAware
15:35 42.8160 -85.4970 204° Southwest 429 494 24,100 -2,040 Descending FlightAware
15:35 42.7980 -85.5170 219° Southwest 427 491 23,900 -900 Descending FlightAware
15:36 42.7800 -85.5500 233° Southwest 423 487 23,700 -1,140 Descending FlightAware
15:36 42.7720 -85.5800 250° West 420 483 23,400 -1,020 Descending FlightAware
15:37 42.7540 -85.6760 256° West 415 478 22,900 -900 Descending FlightAware
15:37 42.7400 -85.7560 257° West 412 474 22,400 -1,080 Descending FlightAware
15:38 42.7240 -85.8500 257° West 410 472 21,700 -1,200 Descending FlightAware
15:38 42.7080 -85.9370 256° West 418 481 21,000 -1,140 Descending FlightAware
15:39 42.6900 -86.0320 256° West 420 483 20,400 -900 Descending FlightAware
15:39 42.6750 -86.1130 256° West 411 473 20,000 -360 Descending FlightAware
15:40 42.6580 -86.2030 256° West 412 474 20,000  Level FlightAware
15:41 42.6420 -86.2920 256° West 413 475 20,000  Level FlightAware
15:41 42.6260 -86.3810 256° West 413 475 20,000 -480 Level FlightAware
15:42 42.6110 -86.4610 256° West 407 468 19,500 -1,860 Descending FlightAware
15:42 42.5900 -86.5680 255° West 404 465 17,700 -2,520 Descending FlightAware
15:43 42.5740 -86.6570 256° West 397 457 16,200 -2,340 Descending FlightAware
15:44 42.5590 -86.7290 254° West 389 448 15,000 -2,400 Descending FlightAware
15:44 42.5350 -86.8190 250° West 381 438 13,400 -2,400 Descending FlightAware
15:45 42.5140 -86.8970 250° West 376 433 12,100 -2,220 Descending FlightAware
15:45 42.4950 -86.9670 250° West 372 428 10,900 -1,680 Descending FlightAware
15:46 42.4740 -87.0450 250° West 365 420 10,200 -1,200 Descending FlightAware
15:46 42.4620 -87.0890 250° West 363 418 9,800 -600 Descending FlightAware
15:47 42.4480 -87.1380 249° West 361 415 9,800  Level FlightAware
15:47 42.4360 -87.1830 250° West 362 417 9,800  Level FlightAware
15:47 42.4290 -87.2080 249° West 363 418 9,800  Level FlightAware
15:48 42.4150 -87.2600 250° West 363 418 9,800  Level FlightAware
15:48 42.4040 -87.3000 250° West 362 417 9,800  Level FlightAware
15:48 42.3920 -87.3440 250° West 362 417 9,800  Level FlightAware
15:49 42.3800 -87.3850 248° West 362 417 9,800  Level FlightAware
15:49 42.3670 -87.4320 249° West 362 417 9,800  Level FlightAware
15:49 42.3570 -87.4680 249° West 363 418 9,800  Level FlightAware
15:50 42.3460 -87.5070 249° West 362 417 9,800  Level FlightAware
15:50 42.3380 -87.5250 239° Southwest 361 415 9,800  Level FlightAware
15:50 42.3230 -87.5500 231° Southwest 360 414 9,800  Level FlightAware
15:50 42.2990 -87.5780 221° Southwest 350 403 9,800  Level FlightAware
15:51 42.2740 -87.6050 219° Southwest 323 372 9,800  Level FlightAware
15:51 42.2510 -87.6280 217° Southwest 297 342 9,800 -420 Level FlightAware
15:51 42.2250 -87.6540 217° Southwest 287 330 9,500 -960 Descending FlightAware
15:52 42.2050 -87.6770 220° Southwest 284 327 9,100 -1,440 Descending FlightAware
15:52 42.1990 -87.6870 231° Southwest 284 327 8,900 -900 Descending FlightAware
15:52 42.1910 -87.7060 240° Southwest 286 329 8,800 -540 Descending FlightAware
15:52 42.1800 -87.7410 247° West 284 327 8,600 -900 Descending FlightAware
15:53 42.1690 -87.7760 247° West 286 329 8,200 -1,320 Descending FlightAware
15:53 42.1590 -87.8090 248° West 285 328 7,700 -1,500 Descending FlightAware
15:53 42.1490 -87.8430 248° West 283 326 7,200 -1,380 Descending FlightAware
15:54 42.1420 -87.8690 250° West 281 323 6,900 -720 Descending FlightAware
15:54 42.1330 -87.9020 250° West 283 326 6,800 -180 Descending FlightAware
15:54 42.1240 -87.9360 250° West 284 327 6,800  Level FlightAware
15:55 42.1150 -87.9660 248° West 283 326 6,800  Level FlightAware
15:55 42.1100 -87.9850 250° West 277 319 6,800  Level FlightAware
15:55 42.0970 -88.0170 241° Southwest 250 288 6,800  Level FlightAware
15:56 42.0870 -88.0420 242° Southwest 235 270 6,800  Level FlightAware
15:56 42.0780 -88.0620 239° Southwest 235 270 6,800 -480 Level FlightAware
15:56 42.0650 -88.0950 242° Southwest 229 264 6,500 -900 Descending FlightAware
15:57 42.0570 -88.1150 242° Southwest 229 264 6,200 -1,200 Descending FlightAware
15:57 42.0460 -88.1400 239° Southwest 230 265 5,800 -1,320 Descending FlightAware
15:57 42.0350 -88.1680 242° Southwest 229 264 5,300 -1,380 Descending FlightAware
15:58 42.0290 -88.1920 251° West 232 267 4,900 -1,320 Descending FlightAware
15:58 42.0250 -88.2210 259° West 233 268 4,500 -1,140 Descending FlightAware
15:58 42.0200 -88.2550 259° West 235 270 4,100 -840 Descending FlightAware
15:59 42.0160 -88.2840 259° West 232 267 3,900 -600 Descending FlightAware
15:59 42.0140 -88.3000 260° West 226 260 3,800 -420 Descending FlightAware
15:59 42.0120 -88.3060 246° West 220 253 3,800  Level FlightAware
15:59 42.0060 -88.3160 231° Southwest 201 231 3,800 300 Level FlightAware
15:59 42.0000 -88.3200 206° Southwest 189 217 3,900 360 Climbing FlightAware
15:59 41.9930 -88.3220 192° South 184 212 3,900 -240 Level FlightAware
16:00 41.9760 -88.3140 161° South 185 213 3,800 -240 Descending FlightAware
16:00 41.9730 -88.3090 129° Southeast 185 213 3,800 540 Level FlightAware
16:00 41.9710 -88.3020 111° Southeast 189 217 3,900 300 Climbing FlightAware
16:00 41.9680 -88.2910 110° East 190 219 3,900 -240 Level FlightAware
16:00 41.9680 -88.2690 90° East 191 220 3,800 -180 Descending FlightAware
16:01 41.9680 -88.2450 90° East 188 216 3,800  Level FlightAware
16:01 41.9680 -88.2290 90° East 188 216 3,800  Level FlightAware
16:01 41.9680 -88.2010 90° East 187 215 3,800  Level FlightAware
16:02 41.9680 -88.1640 90° East 188 216 3,800 -420 Level FlightAware
16:02 41.9680 -88.1290 90° East 189 217 3,400 -1,020 Descending FlightAware
16:03 41.9690 -88.0950 88° East 187 215 2,800 -1,020 Descending FlightAware
16:03 41.9690 -88.0530 90° East 180 207 2,300 -960 Descending FlightAware
16:04 41.9690 -88.0290 90° East 166 191 1,900 -960 Descending FlightAware
16:04 41.9690 -88.0060 90° East 156 180 1,600 -720 Descending FlightAware
16:05 41.9690 -87.9910 90° East 150 173 1,400 -780 Descending FlightAware
16:05 41.9690 -87.9680 90° East 143 165 1,100 -900 Descending FlightAware
16:05 41.9690 -87.9500 90° East 148 170 800 -840 Descending FlightAware
16:06 41.9690 -87.9290 90° East 146 168 500 -360 Descending FlightAware
16:06 41.9690 -87.9030 90° East 143 165 500  Level FlightAware